Time;durP1;ratioP1;P1;durP2;ratioP2;P2;SDS_P1;SDS_P2;PMS_P1;PMS_P2;Temp;Humidity;BMP_temperature;BMP_pressure;BME280_temperature;BME280_humidity;BME280_pressure;Samples;Min_cycle;Max_cycle;Signal;HPM_P1;HPM_P2
2022/03/16 00:00:15;;;;;;;19.50;13.27;;;9.40;99.90;;;;;;5071706;28;20276;-83
2022/03/16 00:02:42;;;;;;;17.63;12.63;;;9.30;99.90;;;;;;5088970;28;20237;-83
2022/03/16 00:05:10;;;;;;;19.70;13.27;;;9.40;99.90;;;;;;5075863;28;20231;-83
2022/03/16 00:07:37;;;;;;;20.37;13.10;;;9.40;99.90;;;;;;5077440;28;20296;-83
2022/03/16 00:10:05;;;;;;;20.10;13.00;;;9.30;99.90;;;;;;5078717;28;20920;-83
2022/03/16 00:12:32;;;;;;;20.63;12.43;;;9.10;99.90;;;;;;5075902;28;20226;-83
2022/03/16 00:14:59;;;;;;;20.60;12.70;;;9.40;99.90;;;;;;5079817;28;20238;-83
2022/03/16 00:17:26;;;;;;;20.20;12.87;;;9.60;99.90;;;;;;5086645;28;20690;-83
2022/03/16 00:19:52;;;;;;;20.97;12.50;;;9.60;99.90;;;;;;5095855;28;20284;-82
2022/03/16 00:22:21;;;;;;;21.03;12.47;;;9.40;99.90;;;;;;5095566;28;20270;-82
2022/03/16 00:24:48;;;;;;;18.97;12.80;;;9.80;99.90;;;;;;5096017;28;20278;-83
2022/03/16 00:27:15;;;;;;;17.90;12.50;;;10.00;99.90;;;;;;5095556;28;20305;-83
2022/03/16 00:29:42;;;;;;;19.43;12.93;;;10.00;99.90;;;;;;5095616;28;20236;-83
2022/03/16 00:32:10;;;;;;;15.40;11.40;;;10.20;99.90;;;;;;5095435;28;20230;-83
2022/03/16 00:34:38;;;;;;;17.40;11.33;;;;;;;;;;5095574;28;20654;-83
2022/03/16 00:37:07;;;;;;;17.00;10.53;;;;;;;;;;5095532;28;20191;-83
2022/03/16 00:39:37;;;;;;;19.33;11.13;;;;;;;;;;5105160;28;20922;-83
2022/03/16 00:42:05;;;;;;;14.73;9.87;;;;;;;;;;5092617;28;20252;-83
2022/03/16 00:44:34;;;;;;;15.70;10.00;;;;;;;;;;5074998;28;20294;-83
2022/03/16 00:47:02;;;;;;;14.63;10.23;;;10.30;99.90;;;;;;5074944;28;20214;-83
2022/03/16 00:49:29;;;;;;;18.23;11.30;;;10.10;99.90;;;;;;5084075;28;20245;-83
2022/03/16 00:51:57;;;;;;;20.47;11.97;;;;;;;;;;5095229;28;20683;-83
2022/03/16 00:54:23;;;;;;;17.27;12.03;;;10.80;99.90;;;;;;5081716;28;20281;-83
2022/03/16 00:56:52;;;;;;;15.37;11.03;;;;;;;;;;5075020;28;20632;-83
2022/03/16 00:59:19;;;;;;;17.47;10.67;;;;;;;;;;5075366;28;20242;-83
2022/03/16 01:01:46;;;;;;;16.07;10.33;;;10.60;99.90;;;;;;5074576;28;20241;-83
2022/03/16 01:04:13;;;;;;;15.83;10.17;;;9.60;99.90;;;;;;5074817;28;20706;-83
2022/03/16 01:06:40;;;;;;;14.13;10.40;;;10.40;99.90;;;;;;5075624;28;20195;-83
2022/03/16 01:09:07;;;;;;;19.20;10.57;;;10.50;99.90;;;;;;5074802;28;20219;-83
2022/03/16 01:11:34;;;;;;;17.43;10.23;;;;;;;;;;5092202;28;20221;-83
2022/03/16 01:14:03;;;;;;;17.67;10.30;;;;;;;;;;5094888;28;20213;-82
2022/03/16 01:16:32;;;;;;;14.33;10.53;;;;;;;;;;5080105;28;20210;-83
2022/03/16 01:19:00;;;;;;;20.60;11.30;;;;;;;;;;5074673;28;20268;-83
2022/03/16 01:21:29;;;;;;;15.83;11.57;;;;;;;;;;5074337;28;20762;-83
2022/03/16 01:23:57;;;;;;;18.03;11.87;;;;;;;;;;5076629;28;20241;-83
2022/03/16 01:26:24;;;;;;;20.20;11.30;;;;;;;;;;5115198;28;20240;-83
2022/03/16 01:28:53;;;;;;;14.43;10.60;;;;;;;;;;5112264;28;20644;-83
2022/03/16 01:31:21;;;;;;;15.70;10.53;;;10.60;99.90;;;;;;5115168;28;20232;-83
2022/03/16 01:33:48;;;;;;;19.47;11.30;;;10.60;99.90;;;;;;5114761;28;20194;-83
2022/03/16 01:36:15;;;;;;;16.30;10.60;;;10.50;99.90;;;;;;5114686;28;20342;-83
2022/03/16 01:38:42;;;;;;;21.03;10.00;;;10.40;99.90;;;;;;5108699;28;20229;-83
2022/03/16 01:41:09;;;;;;;16.60;10.60;;;10.30;99.90;;;;;;5094312;28;20285;-83
2022/03/16 01:43:36;;;;;;;15.23;10.00;;;10.20;99.90;;;;;;5093613;28;20293;-83
2022/03/16 01:46:03;;;;;;;15.87;9.97;;;10.10;99.90;;;;;;5094234;28;20246;-83
2022/03/16 01:48:32;;;;;;;16.17;9.83;;;10.10;99.90;;;;;;5093922;28;20786;-83
2022/03/16 01:50:59;;;;;;;16.37;10.53;;;10.20;99.90;;;;;;5094020;28;20186;-83
2022/03/16 01:53:27;;;;;;;17.27;9.60;;;;;;;;;;5095627;28;20236;-83
2022/03/16 01:55:54;;;;;;;13.70;9.60;;;9.90;99.90;;;;;;5106637;28;20242;-83
2022/03/16 01:58:22;;;;;;;13.50;9.53;;;9.90;99.90;;;;;;5072926;28;20276;-83
2022/03/16 02:00:49;;;;;;;14.63;9.27;;;9.80;99.90;;;;;;5073764;28;20282;-83
2022/03/16 02:03:17;;;;;;;14.80;9.63;;;;;;;;;;5072927;28;20203;-83
2022/03/16 02:05:46;;;;;;;20.57;10.37;;;9.50;99.90;;;;;;5073458;28;20238;-83
2022/03/16 02:08:13;;;;;;;13.77;9.30;;;;;;;;;;5073206;28;20306;-83
2022/03/16 02:10:42;;;;;;;14.70;9.60;;;;;;;;;;5088705;28;20348;-83
2022/03/16 02:13:10;;;;;;;15.90;9.80;;;9.50;99.90;;;;;;5092263;28;20309;-83
2022/03/16 02:15:37;;;;;;;16.80;10.00;;;9.70;99.90;;;;;;5092825;28;20286;-83
2022/03/16 02:18:04;;;;;;;17.00;9.83;;;9.50;99.90;;;;;;5093252;28;20221;-83
2022/03/16 02:20:32;;;;;;;14.93;10.07;;;9.40;99.90;;;;;;5090691;28;21684;-82
2022/03/16 02:23:01;;;;;;;17.50;10.37;;;9.40;99.90;;;;;;5079942;28;20244;-83
2022/03/16 02:25:30;;;;;;;14.77;10.00;;;9.40;99.90;;;;;;5074765;28;20203;-82
2022/03/16 02:27:59;;;;;;;16.83;10.20;;;;;;;;;;5084273;28;20309;-83
2022/03/16 02:30:28;;;;;;;17.77;10.23;;;;;;;;;;5091390;28;20291;-83
2022/03/16 02:32:55;;;;;;;16.60;10.03;;;9.60;99.90;;;;;;5090713;28;20234;-83
2022/03/16 02:35:23;;;;;;;14.83;10.67;;;9.50;99.90;;;;;;5082893;28;20242;-82
2022/03/16 02:37:51;;;;;;;18.67;10.43;;;;;;;;;;5092597;28;20230;-83
2022/03/16 02:40:21;;;;;;;14.93;11.00;;;9.10;99.90;;;;;;5093408;28;20218;-83
2022/03/16 02:42:49;;;;;;;18.27;10.87;;;9.50;99.90;;;;;;5091635;28;20202;-83
2022/03/16 02:45:16;;;;;;;16.17;10.83;;;9.40;99.90;;;;;;5092864;28;20222;-83
2022/03/16 02:47:43;;;;;;;14.73;10.63;;;9.50;99.90;;;;;;5080242;28;20289;-82
2022/03/16 02:50:12;;;;;;;18.43;11.50;;;9.40;99.90;;;;;;5090065;28;20198;-83
2022/03/16 02:52:39;;;;;;;19.57;10.90;;;9.50;99.90;;;;;;5089497;28;20206;-83
2022/03/16 02:55:07;;;;;;;15.67;11.40;;;9.40;99.90;;;;;;5082665;28;20203;-83
2022/03/16 02:57:37;;;;;;;19.93;11.03;;;;;;;;;;5090056;28;20205;-83
2022/03/16 03:00:05;;;;;;;15.23;10.97;;;;;;;;;;5092820;28;20245;-83
2022/03/16 03:02:32;;;;;;;13.80;10.83;;;8.70;99.90;;;;;;5073472;28;20230;-83
2022/03/16 03:04:59;;;;;;;18.53;11.03;;;9.20;99.90;;;;;;5072359;28;20191;-83
2022/03/16 03:07:26;;;;;;;18.23;11.47;;;8.90;99.90;;;;;;5072705;28;20672;-83
2022/03/16 03:09:53;;;;;;;16.70;11.70;;;9.10;99.90;;;;;;5072474;28;20257;-83
2022/03/16 03:12:20;;;;;;;16.17;10.80;;;9.00;99.90;;;;;;5071927;28;20231;-83
2022/03/16 03:14:49;;;;;;;17.40;10.57;;;8.90;99.90;;;;;;5072137;28;20714;-83
2022/03/16 03:17:15;;;;;;;19.17;11.57;;;8.90;99.90;;;;;;5071789;28;20286;-83
2022/03/16 03:19:43;;;;;;;19.87;11.60;;;9.00;99.90;;;;;;5072145;28;20234;-84
2022/03/16 03:22:10;;;;;;;18.83;10.83;;;;;;;;;;5075153;28;20329;-84
2022/03/16 03:24:40;;;;;;;15.77;11.07;;;;;;;;;;5091803;28;20334;-83
2022/03/16 03:27:07;;;;;;;17.77;11.47;;;8.80;99.90;;;;;;5092205;28;20650;-83
2022/03/16 03:29:34;;;;;;;18.67;11.20;;;8.90;99.90;;;;;;5082610;28;20278;-83
2022/03/16 03:32:02;;;;;;;17.27;11.23;;;8.90;99.90;;;;;;5098367;28;20244;-83
2022/03/16 03:34:29;;;;;;;20.40;11.10;;;8.90;99.90;;;;;;5112387;28;20236;-83
2022/03/16 03:36:56;;;;;;;20.23;12.13;;;8.80;99.90;;;;;;5112720;28;20280;-83
2022/03/16 03:39:23;;;;;;;18.60;12.13;;;8.70;99.90;;;;;;5111481;28;20532;-84
2022/03/16 03:41:50;;;;;;;20.97;11.80;;;8.80;99.90;;;;;;5105905;28;20256;-83
2022/03/16 03:44:17;;;;;;;16.93;11.50;;;8.70;99.90;;;;;;5092020;28;20297;-83
2022/03/16 03:46:45;;;;;;;19.30;11.50;;;;;;;;;;5087053;28;20194;-83
2022/03/16 03:49:13;;;;;;;19.83;12.10;;;8.50;99.90;;;;;;5071916;28;20784;-83
2022/03/16 03:51:40;;;;;;;18.70;12.40;;;8.80;99.90;;;;;;5071548;28;20187;-83
2022/03/16 03:54:07;;;;;;;19.90;12.27;;;8.60;99.90;;;;;;5071529;28;20253;-83
2022/03/16 03:56:34;;;;;;;22.57;12.83;;;8.50;99.90;;;;;;5071241;28;20236;-83
2022/03/16 03:59:00;;;;;;;19.73;12.47;;;8.60;99.90;;;;;;5107929;28;20264;-83
2022/03/16 04:01:27;;;;;;;22.10;12.93;;;8.10;99.90;;;;;;5101109;28;20619;-83
2022/03/16 04:03:54;;;;;;;17.37;13.07;;;8.50;99.90;;;;;;5071896;28;20199;-83
2022/03/16 04:06:23;;;;;;;20.63;13.00;;;8.60;99.90;;;;;;5071791;28;20282;-83
2022/03/16 04:08:51;;;;;;;22.00;13.13;;;;;;;;;;5071177;28;20214;-83
2022/03/16 04:11:19;;;;;;;18.80;12.70;;;;;;;;;;5072148;28;20234;-83
2022/03/16 04:13:47;;;;;;;16.90;11.63;;;;;;;;;;5080129;28;20203;-83
2022/03/16 04:16:14;;;;;;;19.53;12.80;;;8.40;99.90;;;;;;5071568;28;20264;-83
2022/03/16 04:18:41;;;;;;;19.47;12.23;;;8.50;99.90;;;;;;5071557;28;20294;-83
2022/03/16 04:21:08;;;;;;;21.63;12.90;;;8.50;99.90;;;;;;5071259;28;20333;-83
2022/03/16 04:23:36;;;;;;;19.20;12.17;;;8.30;99.90;;;;;;5071293;28;20544;-83
2022/03/16 04:26:03;;;;;;;20.23;12.50;;;;;;;;;;5071260;28;20274;-83
2022/03/16 04:28:31;;;;;;;23.53;12.27;;;;;;;;;;5084710;28;20317;-83
2022/03/16 04:30:59;;;;;;;18.80;11.73;;;8.30;99.90;;;;;;5091488;28;20206;-83
2022/03/16 04:33:27;;;;;;;20.17;13.17;;;8.30;99.90;;;;;;5091951;28;20212;-83
2022/03/16 04:35:53;;;;;;;20.50;12.80;;;8.20;99.90;;;;;;5091906;28;20259;-83
2022/03/16 04:38:20;;;;;;;17.47;12.07;;;8.30;99.90;;;;;;5091346;28;20293;-83
2022/03/16 04:40:49;;;;;;;18.53;12.43;;;8.20;99.90;;;;;;5091540;28;20559;-83
2022/03/16 04:43:15;;;;;;;22.63;12.53;;;8.30;99.90;;;;;;5091243;28;20713;-83
2022/03/16 04:45:43;;;;;;;20.77;13.30;;;8.20;99.90;;;;;;5086699;28;20234;-83
2022/03/16 04:48:11;;;;;;;24.07;13.20;;;8.10;99.90;;;;;;5111643;28;20245;-82
2022/03/16 04:50:38;;;;;;;17.37;12.37;;;8.10;99.90;;;;;;5114540;28;20281;-83
2022/03/16 04:53:05;;;;;;;18.37;12.83;;;8.20;99.90;;;;;;5115356;28;20296;-83
2022/03/16 04:55:35;;;;;;;25.40;12.50;;;8.20;99.90;;;;;;5115342;28;20323;-83
2022/03/16 04:58:04;;;;;;;19.37;13.13;;;8.20;99.90;;;;;;5115979;28;20208;-83
2022/03/16 05:00:31;;;;;;;19.07;12.50;;;8.30;99.90;;;;;;5112246;28;20225;-83
2022/03/16 05:02:58;;;;;;;18.00;13.00;;;8.10;99.90;;;;;;5075029;28;20284;-83
2022/03/16 05:05:25;;;;;;;19.97;13.33;;;8.20;99.90;;;;;;5083318;28;20226;-83
2022/03/16 05:07:52;;;;;;;21.13;14.00;;;8.20;99.90;;;;;;5094517;28;20345;-83
2022/03/16 05:10:19;;;;;;;21.73;13.70;;;;;;;;;;5094800;28;20781;-83
2022/03/16 05:12:47;;;;;;;19.87;13.07;;;;;;;;;;5095051;28;20299;-83
2022/03/16 05:15:17;;;;;;;19.20;13.30;;;;;;;;;;5095132;28;20263;-83
2022/03/16 05:17:45;;;;;;;19.57;13.30;;;;;;;;;;5086565;28;20210;-83
2022/03/16 05:20:13;;;;;;;21.33;12.60;;;;;;;;;;5074306;28;20285;-83
2022/03/16 05:22:45;;;;;;;21.40;13.80;;;;;;;;;;5089133;28;20237;-84
2022/03/16 05:25:14;;;;;;;19.40;13.13;;;;;;;;;;5094758;28;20260;-83
2022/03/16 05:27:41;;;;;;;19.27;12.53;;;;;;;;;;5094457;28;20257;-83
2022/03/16 05:30:10;;;;;;;19.20;12.47;;;;;;;;;;5094646;28;20254;-83
2022/03/16 05:32:41;;;;;;;18.03;12.47;;;;;;;;;;5084276;28;20301;-83
2022/03/16 05:35:09;;;;;;;20.47;12.27;;;;;;;;;;5073837;28;20203;-83
2022/03/16 05:37:38;;;;;;;19.93;12.00;;;;;;;;;;5075104;28;20252;-82
2022/03/16 05:40:06;;;;;;;20.70;11.90;;;8.20;99.90;;;;;;5090050;28;20227;-83
2022/03/16 05:42:33;;;;;;;18.83;11.50;;;;;;;;;;5094245;28;20539;-84
2022/03/16 05:45:01;;;;;;;18.03;11.90;;;;;;;;;;5093915;28;20191;-84
2022/03/16 05:47:28;;;;;;;22.10;12.07;;;8.50;99.90;;;;;;5092061;28;20306;-84
2022/03/16 05:49:57;;;;;;;15.70;11.07;;;8.60;99.90;;;;;;5073461;28;20276;-84
2022/03/16 05:52:25;;;;;;;16.40;10.77;;;8.50;99.90;;;;;;5074144;28;20231;-84
2022/03/16 05:54:54;;;;;;;22.27;11.50;;;8.50;99.90;;;;;;5074114;28;20633;-83
2022/03/16 05:57:21;;;;;;;16.77;11.00;;;8.40;99.90;;;;;;5073830;28;20210;-83
2022/03/16 05:59:48;;;;;;;16.60;10.80;;;8.30;99.90;;;;;;5077387;28;20660;-82
2022/03/16 06:02:16;;;;;;;16.93;10.67;;;8.40;99.90;;;;;;5092760;28;20233;-83
2022/03/16 06:04:44;;;;;;;18.27;11.37;;;;;;;;;;5093295;28;20787;-82
2022/03/16 06:07:13;;;;;;;16.60;10.90;;;;;;;;;;5093251;28;20622;-83
2022/03/16 06:09:41;;;;;;;19.53;10.63;;;8.30;99.90;;;;;;5093710;28;20218;-82
2022/03/16 06:12:09;;;;;;;18.67;11.03;;;;;;;;;;5093192;28;20199;-82
2022/03/16 06:14:36;;;;;;;18.67;10.87;;;8.30;99.90;;;;;;5091346;28;20238;-83
2022/03/16 06:17:04;;;;;;;16.57;10.60;;;8.50;99.90;;;;;;5073722;28;20579;-83
2022/03/16 06:19:31;;;;;;;16.00;10.60;;;;;;;;;;5092902;28;20281;-81
2022/03/16 06:22:00;;;;;;;20.03;10.67;;;;;;;;;;5093427;28;20240;-81
2022/03/16 06:24:29;;;;;;;18.87;10.63;;;;;;;;;;5093468;28;20633;-81
2022/03/16 06:26:57;;;;;;;16.57;10.57;;;;;;;;;;5093492;28;20282;-82
2022/03/16 06:29:25;;;;;;;16.50;10.67;;;;;;;;;;5092994;28;20711;-83
2022/03/16 06:31:53;;;;;;;19.57;10.93;;;;;;;;;;5093503;28;20226;-82
2022/03/16 06:34:21;;;;;;;16.73;11.13;;;;;;;;;;5080418;28;20229;-83
2022/03/16 06:36:48;;;;;;;15.67;10.33;;;8.60;99.90;;;;;;5083330;28;20221;-81
2022/03/16 06:39:15;;;;;;;14.63;10.10;;;8.70;99.90;;;;;;5093632;28;20237;-81
2022/03/16 06:41:43;;;;;;;15.23;9.97;;;8.80;99.90;;;;;;5090417;28;20369;-83
2022/03/16 06:44:10;;;;;;;16.50;9.60;;;8.80;99.90;;;;;;5125607;27;20202;-82
2022/03/16 06:46:37;;;;;;;17.33;10.20;;;8.90;99.90;;;;;;5088991;28;20199;-82
2022/03/16 06:49:04;;;;;;;17.57;10.07;;;8.90;99.90;;;;;;5092615;28;20285;-82
2022/03/16 06:51:31;;;;;;;15.40;9.13;;;8.90;99.90;;;;;;5085797;28;20657;-82
2022/03/16 06:53:58;;;;;;;14.47;9.80;;;8.80;99.90;;;;;;5072494;28;20198;-80
2022/03/16 06:56:25;;;;;;;19.97;9.47;;;9.00;99.90;;;;;;5075143;28;20278;-80
2022/03/16 06:58:54;;;;;;;16.10;9.43;;;9.00;99.90;;;;;;5093851;28;20272;-82
2022/03/16 07:01:21;;;;;;;14.00;8.73;;;8.90;99.90;;;;;;5112895;28;20200;-81
2022/03/16 07:03:47;;;;;;;15.83;8.90;;;9.10;99.90;;;;;;5112219;27;20239;-82
2022/03/16 07:06:15;;;;;;;17.90;9.40;;;9.00;99.90;;;;;;5108801;28;20230;-81
2022/03/16 07:08:41;;;;;;;15.93;9.33;;;9.00;99.90;;;;;;5092283;28;20194;-82
2022/03/16 07:11:08;;;;;;;17.97;9.07;;;9.10;99.90;;;;;;5092445;28;20218;-82
2022/03/16 07:13:35;;;;;;;17.37;8.93;;;9.20;99.90;;;;;;5092234;28;20233;-82
2022/03/16 07:16:04;;;;;;;14.93;8.43;;;9.30;99.90;;;;;;5092570;28;20233;-82
2022/03/16 07:18:31;;;;;;;17.07;8.93;;;9.20;99.90;;;;;;5092573;28;20230;-82
2022/03/16 07:20:58;;;;;;;15.37;9.20;;;9.30;99.90;;;;;;5091159;28;20313;-82
2022/03/16 07:23:25;;;;;;;16.83;8.80;;;9.50;99.90;;;;;;5071755;28;20235;-81
2022/03/16 07:25:53;;;;;;;13.67;7.93;;;9.30;99.90;;;;;;5071803;28;20234;-80
2022/03/16 07:28:21;;;;;;;15.30;8.60;;;9.40;99.90;;;;;;5071794;28;20742;-81
2022/03/16 07:30:48;;;;;;;12.53;7.97;;;;;;;;;;5090172;28;20309;-82
2022/03/16 07:33:18;;;;;;;15.37;8.80;;;;;;;;;;5086071;28;20222;-81
2022/03/16 07:35:46;;;;;;;17.37;8.10;;;9.50;99.90;;;;;;5091283;28;20225;-82
2022/03/16 07:38:13;;;;;;;13.17;6.93;;;9.50;99.90;;;;;;5092180;28;20336;-82
2022/03/16 07:40:41;;;;;;;12.33;7.67;;;9.70;99.90;;;;;;5105433;28;20666;-82
2022/03/16 07:43:08;;;;;;;15.80;7.70;;;9.60;99.90;;;;;;5112036;28;20194;-81
2022/03/16 07:45:35;;;;;;;15.40;7.47;;;9.70;99.90;;;;;;5095618;28;20285;-82
2022/03/16 07:48:03;;;;;;;13.70;7.50;;;9.70;99.90;;;;;;5091705;28;20249;-81
2022/03/16 07:50:32;;;;;;;14.73;7.57;;;9.80;99.90;;;;;;5092329;28;20268;-82
2022/03/16 07:52:59;;;;;;;14.93;7.67;;;9.80;99.90;;;;;;5091910;28;20378;-82
2022/03/16 07:55:26;;;;;;;14.30;8.07;;;9.90;99.90;;;;;;5092055;28;20292;-82
2022/03/16 07:57:54;;;;;;;12.10;7.83;;;9.90;99.90;;;;;;5091836;28;20237;-82
2022/03/16 08:00:22;;;;;;;12.50;7.43;;;10.00;99.90;;;;;;5091792;28;20206;-82
2022/03/16 08:02:49;;;;;;;12.63;7.20;;;10.00;99.90;;;;;;5092256;28;20233;-82
2022/03/16 08:05:16;;;;;;;12.10;6.87;;;10.00;99.90;;;;;;5091968;28;20238;-81
2022/03/16 08:07:44;;;;;;;15.67;7.20;;;10.00;99.90;;;;;;5086163;28;20278;-81
2022/03/16 08:10:11;;;;;;;15.70;7.60;;;9.90;99.90;;;;;;5071609;28;20306;-81
2022/03/16 08:12:38;;;;;;;13.60;7.80;;;10.00;99.90;;;;;;5071863;28;20289;-81
2022/03/16 08:15:06;;;;;;;15.00;7.47;;;10.00;99.90;;;;;;5071656;28;20252;-81
2022/03/16 08:17:33;;;;;;;13.37;7.20;;;10.00;99.90;;;;;;5071714;28;20226;-81
2022/03/16 08:20:00;;;;;;;12.93;7.23;;;10.20;99.90;;;;;;5081693;28;20273;-81
2022/03/16 08:22:29;;;;;;;11.47;6.27;;;10.20;99.90;;;;;;5091568;28;20244;-81
2022/03/16 08:24:59;;;;;;;12.77;7.10;;;10.10;99.90;;;;;;5093832;28;20205;-81
2022/03/16 08:27:27;;;;;;;11.30;6.80;;;10.30;99.90;;;;;;5079874;28;20277;-81
2022/03/16 08:29:55;;;;;;;9.27;6.40;;;10.20;99.90;;;;;;5095152;28;20213;-81
2022/03/16 08:32:23;;;;;;;13.13;6.57;;;;;;;;;;5095913;28;20277;-82
2022/03/16 08:34:51;;;;;;;10.27;6.53;;;10.20;99.90;;;;;;5095573;28;20587;-81
2022/03/16 08:37:18;;;;;;;11.53;6.50;;;;;;;;;;5095578;28;20202;-82
2022/03/16 08:39:46;;;;;;;9.67;5.93;;;10.20;99.90;;;;;;5095515;28;20198;-82
2022/03/16 08:42:16;;;;;;;10.83;6.73;;;10.30;99.90;;;;;;5095546;28;20742;-81
2022/03/16 08:44:45;;;;;;;11.53;6.60;;;10.40;99.90;;;;;;5098870;28;20566;-81
2022/03/16 08:47:16;;;;;;;12.00;6.80;;;10.40;99.90;;;;;;5099199;28;20233;-82
2022/03/16 08:49:43;;;;;;;13.83;6.53;;;10.50;99.90;;;;;;5094708;28;20195;-82
2022/03/16 08:52:10;;;;;;;12.20;6.40;;;10.50;99.90;;;;;;5095402;28;20707;-81
2022/03/16 08:54:38;;;;;;;11.57;7.03;;;;;;;;;;5095175;28;20194;-82
2022/03/16 08:57:05;;;;;;;12.53;6.57;;;;;;;;;;5095395;28;20244;-82
2022/03/16 08:59:35;;;;;;;12.60;7.07;;;;;;;;;;5092695;28;20218;-81
2022/03/16 09:02:03;;;;;;;10.97;7.13;;;;;;;;;;5074913;28;20227;-81
2022/03/16 09:04:30;;;;;;;14.40;7.00;;;10.50;99.90;;;;;;5074918;28;20203;-82
2022/03/16 09:06:58;;;;;;;11.43;6.60;;;;;;;;;;5074664;28;20679;-81
2022/03/16 09:09:26;;;;;;;11.60;6.63;;;;;;;;;;5074660;28;20199;-81
2022/03/16 09:11:53;;;;;;;11.20;6.97;;;9.20;99.90;;;;;;5074402;28;20259;-81
2022/03/16 09:14:20;;;;;;;10.73;6.60;;;10.60;99.90;;;;;;5074246;28;20682;-81
2022/03/16 09:16:48;;;;;;;11.37;6.60;;;10.70;99.90;;;;;;5076047;28;20227;-80
2022/03/16 09:19:20;;;;;;;14.83;7.50;;;10.60;99.90;;;;;;5083391;28;20234;-81
2022/03/16 09:21:47;;;;;;;11.57;6.63;;;10.80;99.90;;;;;;5086127;28;20308;-81
2022/03/16 09:24:14;;;;;;;10.50;6.63;;;10.90;99.90;;;;;;5094678;28;20285;-82
2022/03/16 09:26:42;;;;;;;12.23;6.67;;;10.90;99.90;;;;;;5094776;28;20295;-81
2022/03/16 09:29:09;;;;;;;12.33;6.93;;;11.00;99.90;;;;;;5081454;28;20213;-81
2022/03/16 09:31:37;;;;;;;12.50;6.70;;;11.00;99.90;;;;;;5094444;28;20271;-81
2022/03/16 09:34:07;;;;;;;14.13;7.23;;;11.10;99.90;;;;;;5094252;28;20198;-82
2022/03/16 09:36:34;;;;;;;13.83;6.37;;;11.20;99.90;;;;;;5093495;28;20289;-81
2022/03/16 09:39:01;;;;;;;12.50;6.10;;;11.30;99.90;;;;;;5091181;28;20294;-81
2022/03/16 09:41:28;;;;;;;13.03;6.03;;;9.60;99.90;;;;;;5084021;28;20198;-82
2022/03/16 09:43:57;;;;;;;9.90;6.17;;;;;;;;;;5094013;28;20279;-81
2022/03/16 09:46:27;;;;;;;10.73;5.87;;;;;;;;;;5111992;28;20278;-82
2022/03/16 09:48:54;;;;;;;11.17;6.20;;;;;;;;;;5114606;28;20668;-81
2022/03/16 09:51:24;;;;;;;11.17;6.10;;;11.20;99.90;;;;;;5114805;28;20228;-81
2022/03/16 09:53:52;;;;;;;10.77;6.03;;;11.30;99.90;;;;;;5114645;28;20237;-82
2022/03/16 09:56:20;;;;;;;10.17;6.20;;;11.40;99.90;;;;;;5113885;28;20614;-82
2022/03/16 09:58:47;;;;;;;10.23;6.00;;;11.40;99.90;;;;;;5114620;28;20304;-81
2022/03/16 10:01:15;;;;;;;9.33;5.70;;;;;;;;;;5104196;28;20199;-81
2022/03/16 10:03:42;;;;;;;9.93;6.17;;;;;;;;;;5089932;28;20285;-82
2022/03/16 10:06:10;;;;;;;9.10;5.77;;;11.80;99.90;;;;;;5093321;28;20693;-84
2022/03/16 10:08:39;;;;;;;8.80;5.80;;;;;;;;;;5093537;28;20569;-85
2022/03/16 10:13:53;;;;;;;10.83;5.37;;;;;;;;;;5056554;28;20202;-84
2022/03/16 10:16:21;;;;;;;9.27;5.60;;;;;;;;;;5080422;28;20263;-84
2022/03/16 10:18:56;;;;;;;12.07;5.83;;;12.00;99.90;;;;;;5079199;28;20229;-84
2022/03/16 10:21:24;;;;;;;8.67;5.37;;;;;;;;;;5073615;28;20237;-83
2022/03/16 10:24:03;;;;;;;10.13;5.80;;;;;;;;;;5053973;28;20194;-84
2022/03/16 10:26:32;;;;;;;10.67;5.57;;;12.70;99.90;;;;;;5074718;28;20556;-84
2022/03/16 10:29:04;;;;;;;9.07;5.77;;;;;;;;;;5069559;28;20683;-83
2022/03/16 10:31:35;;;;;;;9.73;5.50;;;;;;;;;;5044991;28;20215;-83
2022/03/16 10:34:06;;;;;;;12.53;5.23;;;;;;;;;;5054040;28;20381;-83
2022/03/16 10:36:40;;;;;;;9.37;5.60;;;;;;;;;;5061706;28;20227;-83
2022/03/16 10:39:09;;;;;;;11.37;6.17;;;;;;;;;;5063367;28;20206;-83
2022/03/16 10:47:12;;;;;;;10.00;5.37;;;;;;;;;;5062346;28;20201;-84
2022/03/16 10:49:39;;;;;;;10.47;5.70;;;12.80;99.90;;;;;;5070140;28;20241;-83
2022/03/16 10:52:10;;;;;;;9.60;5.73;;;13.10;99.90;;;;;;5076227;28;20310;-84
2022/03/16 10:54:39;;;;;;;9.03;5.43;;;13.00;99.90;;;;;;5075361;28;20206;-84
2022/03/16 10:57:10;;;;;;;11.97;5.57;;;12.90;99.90;;;;;;5092635;28;20234;-83
2022/03/16 10:59:38;;;;;;;13.50;6.20;;;13.10;99.90;;;;;;5092939;28;20215;-84
2022/03/16 11:02:06;;;;;;;12.40;6.10;;;13.20;99.90;;;;;;5092907;28;20225;-83
2022/03/16 11:04:35;;;;;;;7.30;5.87;;;13.40;99.90;;;;;;5092827;28;20206;-84
2022/03/16 11:07:03;;;;;;;10.50;6.03;;;;;;;;;;5092733;28;20331;-83
2022/03/16 11:09:32;;;;;;;11.83;5.53;;;;;;;;;;5092373;28;20203;-83
2022/03/16 11:14:49;;;;;;;13.00;5.83;;;13.20;99.90;;;;;;5074996;28;20474;-84
2022/03/16 11:17:17;;;;;;;11.40;5.60;;;;;;;;;;5092744;28;20292;-83
2022/03/16 11:19:46;;;;;;;13.10;5.60;;;13.10;99.90;;;;;;5096692;28;20292;-83
2022/03/16 11:22:17;;;;;;;12.33;5.87;;;13.50;99.90;;;;;;5074323;28;20234;-84
2022/03/16 11:24:47;;;;;;;9.90;5.80;;;13.40;99.90;;;;;;5072311;28;20268;-83
2022/03/16 11:27:35;;;;;;;13.33;5.70;;;13.60;99.90;;;;;;5070833;28;20323;-84
2022/03/16 11:30:12;;;;;;;10.67;5.70;;;13.90;99.90;;;;;;5084714;28;20210;-84
2022/03/16 11:32:40;;;;;;;13.10;5.40;;;13.80;99.90;;;;;;5091086;28;20305;-83
2022/03/16 11:35:09;;;;;;;11.37;5.67;;;14.10;99.90;;;;;;5090166;28;20233;-83
2022/03/16 11:37:39;;;;;;;11.63;5.57;;;14.00;99.90;;;;;;5098285;28;20194;-84
2022/03/16 11:40:11;;;;;;;8.60;5.23;;;14.20;99.90;;;;;;5077522;28;20686;-84
2022/03/16 11:42:44;;;;;;;15.23;5.50;;;14.20;99.90;;;;;;5087299;28;20273;-84
2022/03/16 11:45:32;;;;;;;11.10;4.60;;;14.20;99.90;;;;;;5088030;28;20195;-84
2022/03/16 11:47:59;;;;;;;11.77;5.27;;;14.40;99.90;;;;;;5074565;28;20202;-83
2022/03/16 11:50:28;;;;;;;11.10;5.47;;;14.40;99.90;;;;;;5099046;28;20322;-83
2022/03/16 11:53:05;;;;;;;11.50;5.30;;;14.30;99.90;;;;;;5089369;28;20219;-84
2022/03/16 11:55:41;;;;;;;8.60;5.50;;;14.10;99.90;;;;;;5091415;28;20202;-84
2022/03/16 11:58:25;;;;;;;11.80;5.30;;;13.90;99.90;;;;;;5082436;28;20253;-84
2022/03/16 12:01:08;;;;;;;8.20;5.10;;;14.30;99.90;;;;;;5085965;28;20282;-83
2022/03/16 12:03:44;;;;;;;11.03;5.67;;;14.20;99.90;;;;;;5093833;28;20287;-83
2022/03/16 12:06:12;;;;;;;13.47;5.50;;;14.20;99.90;;;;;;5089091;28;20709;-83
2022/03/16 12:08:52;;;;;;;11.40;5.60;;;14.30;99.90;;;;;;5091320;28;20590;-83
2022/03/16 12:14:07;;;;;;;15.27;5.67;;;14.40;99.90;;;;;;5103319;28;20273;-82
2022/03/16 12:16:42;;;;;;;11.50;5.90;;;14.30;99.90;;;;;;5111981;28;20208;-84
2022/03/16 12:19:27;;;;;;;9.80;5.50;;;14.50;99.90;;;;;;5083119;28;20194;-83
2022/03/16 12:21:57;;;;;;;15.00;6.30;;;14.70;99.90;;;;;;5087347;28;20224;-83
2022/03/16 12:30:13;;;;;;;10.17;5.80;;;;;;;;;;5026444;28;20208;-81
2022/03/16 12:32:41;;;;;;;12.03;6.00;;;14.30;99.90;;;;;;5029209;28;20710;-88
2022/03/16 12:35:09;;;;;;;16.87;6.13;;;;;;;;;;5028454;28;20246;-86
2022/03/16 12:37:50;;;;;;;9.37;5.63;;;;;;;;;;5021536;28;20197;-83
2022/03/16 12:40:17;;;;;;;14.97;5.77;;;;;;;;;;5009308;28;20197;-84
2022/03/16 12:42:44;;;;;;;13.30;5.40;;;;;;;;;;5017959;28;20201;-82
2022/03/16 12:45:14;;;;;;;10.30;6.10;;;;;;;;;;5016382;28;20199;-85
2022/03/16 12:47:43;;;;;;;11.83;5.90;;;14.70;99.90;;;;;;5017081;28;20228;-85
2022/03/16 12:50:14;;;;;;;9.63;5.13;;;14.80;99.90;;;;;;5016412;28;20227;-85
2022/03/16 12:52:49;;;;;;;14.63;5.43;;;14.90;99.90;;;;;;5013373;28;20259;-84
2022/03/16 12:55:18;;;;;;;17.03;5.90;;;;;;;;;;5017275;28;20295;-84
2022/03/16 12:57:52;;;;;;;13.97;5.60;;;14.70;99.90;;;;;;5021114;28;20201;-84
2022/03/16 13:00:21;;;;;;;10.57;5.67;;;;;;;;;;5021524;28;20243;-83
2022/03/16 13:02:50;;;;;;;11.03;5.17;;;;;;;;;;5019271;28;20188;-82
2022/03/16 13:05:21;;;;;;;12.57;6.27;;;14.70;99.90;;;;;;5020327;28;20279;-82
2022/03/16 13:07:49;;;;;;;10.93;5.90;;;15.00;99.90;;;;;;5075949;28;20199;-82
2022/03/16 13:10:16;;;;;;;15.17;6.03;;;14.80;99.90;;;;;;5091109;28;20199;-83
2022/03/16 13:12:56;;;;;;;13.67;6.03;;;14.50;99.90;;;;;;5085878;28;20217;-82
2022/03/16 13:15:27;;;;;;;14.13;6.07;;;14.40;99.90;;;;;;5086029;28;20202;-82
2022/03/16 13:17:57;;;;;;;10.47;6.23;;;14.40;99.90;;;;;;5085918;28;20221;-84
2022/03/16 13:20:25;;;;;;;13.87;6.20;;;14.30;99.90;;;;;;5090040;28;20609;-82
2022/03/16 13:23:03;;;;;;;14.63;6.40;;;14.30;99.90;;;;;;5085916;28;20633;-84
2022/03/16 13:25:31;;;;;;;12.07;6.43;;;;;;;;;;5078595;28;20285;-82
2022/03/16 13:27:59;;;;;;;17.20;6.97;;;;;;;;;;5086899;28;20191;-82
2022/03/16 13:30:28;;;;;;;14.43;6.40;;;;;;;;;;5089794;28;20688;-83
2022/03/16 13:32:56;;;;;;;13.70;6.30;;;;;;;;;;5094254;28;20764;-84